createdAt,value
2023-02-03T00:00:56.128Z,101327.19
2023-02-03T00:03:24.424Z,101325.19
2023-02-03T00:05:52.880Z,101329.22
2023-02-03T00:08:21.842Z,101310.00
2023-02-03T00:10:50.039Z,101298.44
2023-02-03T00:13:17.884Z,101302.97
2023-02-03T00:15:45.982Z,101299.34
2023-02-03T00:18:16.359Z,101303.31
2023-02-03T00:20:47.740Z,101301.63
2023-02-03T00:23:16.111Z,101290.09
2023-02-03T00:25:45.071Z,101297.59
2023-02-03T00:28:13.619Z,101292.81
2023-02-03T00:30:41.534Z,101294.41
2023-02-03T00:33:09.532Z,101300.31
2023-02-03T00:35:40.819Z,101299.75
2023-02-03T00:38:08.869Z,101300.44
2023-02-03T00:40:36.934Z,101310.19
2023-02-03T00:43:07.419Z,101309.91
2023-02-03T00:45:35.439Z,101298.72
2023-02-03T00:48:04.080Z,101306.03
2023-02-03T00:50:32.138Z,101314.69
2023-02-03T00:53:02.002Z,101300.25
2023-02-03T00:55:30.233Z,101300.59
2023-02-03T00:57:58.061Z,101285.63
2023-02-03T01:00:26.116Z,101300.38
2023-02-03T01:02:54.712Z,101295.41
2023-02-03T01:05:22.823Z,101290.47
2023-02-03T01:07:51.036Z,101277.47
2023-02-03T01:10:20.897Z,101262.47
2023-02-03T01:12:49.260Z,101277.44
2023-02-03T01:15:19.061Z,101274.88
2023-02-03T01:17:47.297Z,101285.28
2023-02-03T01:20:17.041Z,101285.34
2023-02-03T01:22:45.321Z,101288.94
2023-02-03T01:25:13.147Z,101288.72
2023-02-03T01:27:42.966Z,101289.81
2023-02-03T01:30:12.660Z,101293.63
2023-02-03T01:32:41.538Z,101302.56
2023-02-03T01:35:10.968Z,101298.19
2023-02-03T01:37:39.472Z,101285.19
2023-02-03T01:40:08.832Z,101292.25
2023-02-03T01:42:37.196Z,101286.00
2023-02-03T01:45:07.910Z,101286.13
2023-02-03T01:47:41.334Z,101276.75
2023-02-03T01:50:14.944Z,101283.56
2023-02-03T01:52:48.272Z,101285.31
2023-02-03T01:55:21.330Z,101273.91
2023-02-03T01:57:54.422Z,101264.94
2023-02-03T02:00:25.736Z,101262.31
2023-02-03T02:03:03.066Z,101251.44
2023-02-03T02:05:36.247Z,101255.19
2023-02-03T02:08:07.685Z,101250.06
2023-02-03T02:10:36.645Z,101229.44
2023-02-03T02:13:07.317Z,101232.31
2023-02-03T02:15:51.752Z,101218.22
2023-02-03T02:18:44.232Z,101212.19
2023-02-03T02:21:50.433Z,101227.00
2023-02-03T02:25:04.935Z,101218.09
2023-02-03T02:28:08.502Z,101198.38
2023-02-03T02:30:57.852Z,101200.19
2023-02-03T02:33:39.187Z,101195.88
2023-02-03T02:36:16.169Z,101204.53
2023-02-03T02:38:54.055Z,101212.53
2023-02-03T02:41:27.545Z,101218.69
2023-02-03T02:44:03.525Z,101219.09
2023-02-03T02:46:37.532Z,101236.50
2023-02-03T02:49:14.226Z,101214.47
2023-02-03T02:51:46.569Z,101217.91
2023-02-03T02:54:19.789Z,101204.75
2023-02-03T02:56:54.177Z,101207.31
2023-02-03T02:59:22.817Z,101191.22
2023-02-03T03:02:00.904Z,101176.34
2023-02-03T03:04:39.755Z,101182.59
2023-02-03T03:07:15.050Z,101190.66
2023-02-03T03:09:53.604Z,101184.53
2023-02-03T03:12:26.311Z,101193.66
2023-02-03T03:14:59.087Z,101193.50
2023-02-03T03:17:31.600Z,101198.84
2023-02-03T03:20:06.234Z,101204.03
2023-02-03T03:22:40.028Z,101208.75
2023-02-03T03:25:16.032Z,101205.34
2023-02-03T03:27:50.331Z,101207.97
2023-02-03T03:30:24.169Z,101195.66
2023-02-03T03:32:53.004Z,101198.69
2023-02-03T03:35:23.968Z,101176.19
2023-02-03T03:38:00.033Z,101173.53
2023-02-03T03:40:37.871Z,101172.53
2023-02-03T03:43:12.836Z,101172.72
2023-02-03T03:45:49.495Z,101175.81
2023-02-03T03:48:22.296Z,101179.06
2023-02-03T03:50:56.955Z,101173.84
2023-02-03T03:53:27.313Z,101163.28
2023-02-03T03:55:58.286Z,101164.91
2023-02-03T03:58:31.464Z,101167.44
2023-02-03T04:01:04.467Z,101167.50
2023-02-03T04:03:37.146Z,101147.88
2023-02-03T04:06:08.295Z,101153.94
2023-02-03T04:08:37.460Z,101163.03
2023-02-03T04:11:09.563Z,101161.28
2023-02-03T04:13:38.143Z,101146.78
2023-02-03T04:16:07.379Z,101146.56
2023-02-03T04:18:36.092Z,101145.06
2023-02-03T04:21:05.232Z,101143.63
2023-02-03T04:23:43.834Z,101147.00
2023-02-03T04:26:13.150Z,101151.97
2023-02-03T04:28:43.492Z,101145.38
2023-02-03T04:31:12.181Z,101155.25
2023-02-03T04:36:36.913Z,101147.00
2023-02-03T04:39:07.415Z,101148.41
2023-02-03T04:41:35.926Z,101138.00
2023-02-03T04:44:04.028Z,101162.03
2023-02-03T04:46:32.557Z,101151.56
2023-02-03T04:49:00.560Z,101148.72
2023-02-03T04:51:28.675Z,101148.53
2023-02-03T04:53:56.672Z,101143.47
2023-02-03T04:56:26.188Z,101132.72
2023-02-03T04:58:54.254Z,101136.06
2023-02-03T05:01:22.190Z,101127.81
2023-02-03T05:03:50.361Z,101136.03
2023-02-03T05:06:18.581Z,101117.25
2023-02-03T05:08:46.762Z,101123.88
2023-02-03T05:11:15.016Z,101121.38
2023-02-03T05:13:44.614Z,101128.47
2023-02-03T05:16:12.713Z,101112.59
2023-02-03T05:18:41.551Z,101115.00
2023-02-03T05:21:10.716Z,101100.88
2023-02-03T05:23:41.753Z,101114.59
2023-02-03T05:26:10.224Z,101097.09
2023-02-03T05:28:38.554Z,101094.38
2023-02-03T05:31:08.517Z,101095.69
2023-02-03T05:33:36.696Z,101087.78
2023-02-03T05:36:05.086Z,101092.66
2023-02-03T05:38:33.270Z,101076.78
2023-02-03T05:41:19.393Z,101090.25
2023-02-03T05:43:47.581Z,101085.19
2023-02-03T05:46:17.438Z,101069.56
2023-02-03T05:48:45.615Z,101067.63
2023-02-03T05:51:14.924Z,101074.78
2023-02-03T05:53:43.281Z,101072.28
2023-02-03T05:56:11.486Z,101070.88
2023-02-03T05:58:39.598Z,101069.41
2023-02-03T06:01:08.012Z,101064.34
2023-02-03T06:03:38.125Z,101055.25
2023-02-03T06:06:06.310Z,101060.81
2023-02-03T06:08:34.580Z,101044.59
2023-02-03T06:11:02.961Z,101059.16
2023-02-03T06:13:31.463Z,101060.03
2023-02-03T06:15:59.749Z,101060.78
2023-02-03T06:18:29.749Z,101070.38
2023-02-03T06:20:59.307Z,101071.31
2023-02-03T06:23:27.939Z,101060.66
2023-02-03T06:25:56.799Z,101051.63
2023-02-03T06:28:24.895Z,101053.53
2023-02-03T06:30:53.445Z,101043.28
2023-02-03T06:33:22.488Z,101024.63
2023-02-03T06:35:51.109Z,101019.22
2023-02-03T06:38:24.885Z,101031.34
2023-02-03T06:40:53.930Z,101022.66
2023-02-03T06:43:22.536Z,101026.06
2023-02-03T06:45:50.637Z,101011.84
2023-02-03T06:48:19.154Z,101012.97
2023-02-03T06:50:48.838Z,101026.50
2023-02-03T06:53:17.601Z,100996.19
2023-02-03T06:55:49.478Z,100997.97
2023-02-03T06:58:17.455Z,100992.91
2023-02-03T07:00:46.205Z,100982.41
2023-02-03T07:03:14.827Z,100981.22
2023-02-03T07:05:43.702Z,100969.91
2023-02-03T07:08:11.781Z,100969.69
2023-02-03T07:10:40.053Z,100967.94
2023-02-03T07:13:10.063Z,100968.16
2023-02-03T07:15:38.207Z,100963.91
2023-02-03T07:18:06.406Z,100967.44
2023-02-03T07:20:34.452Z,100961.06
2023-02-03T07:23:02.617Z,100945.34
2023-02-03T07:25:32.168Z,100940.69
2023-02-03T07:28:00.266Z,100937.91
2023-02-03T07:30:30.896Z,100942.00
2023-02-03T07:32:59.144Z,100936.69
2023-02-03T07:35:27.527Z,100933.03
2023-02-03T07:37:55.702Z,100921.22
2023-02-03T07:40:23.904Z,100924.00
2023-02-03T07:42:52.151Z,100908.75
2023-02-03T07:45:22.690Z,100907.84
2023-02-03T07:47:54.727Z,100912.91
2023-02-03T07:50:28.269Z,100921.28
2023-02-03T07:52:59.755Z,100920.59
2023-02-03T07:55:33.860Z,100907.41
2023-02-03T07:58:03.416Z,100931.13
2023-02-03T08:00:31.664Z,100914.03
2023-02-03T08:03:01.668Z,100926.38
2023-02-03T08:05:31.361Z,100925.19
2023-02-03T08:08:04.654Z,100915.13
2023-02-03T08:10:38.039Z,100911.47
2023-02-03T08:13:17.612Z,100919.03
2023-02-03T08:15:46.724Z,100924.41
2023-02-03T08:18:17.193Z,100923.13
2023-02-03T08:20:46.051Z,100933.03
2023-02-03T08:23:14.164Z,100919.13
2023-02-03T08:25:42.469Z,100928.34
2023-02-03T08:28:10.771Z,100929.19
2023-02-03T08:30:39.526Z,100934.19
2023-02-03T08:33:07.708Z,100956.59
2023-02-03T08:35:37.095Z,100934.63
2023-02-03T08:38:06.089Z,100950.47
2023-02-03T08:40:39.193Z,100964.66
2023-02-03T08:43:12.278Z,100945.47
2023-02-03T08:45:41.317Z,100945.13
2023-02-03T08:48:10.779Z,100944.66
2023-02-03T08:50:42.935Z,100944.50
2023-02-03T08:53:11.049Z,100958.06
2023-02-03T08:55:40.622Z,100924.88
2023-02-03T08:58:08.838Z,100935.94
2023-02-03T09:00:37.136Z,100918.13
2023-02-03T09:03:05.454Z,100935.50
2023-02-03T09:05:34.754Z,100929.41
2023-02-03T09:08:04.911Z,100919.50
2023-02-03T09:10:33.099Z,100921.34
2023-02-03T09:13:04.330Z,100930.91
2023-02-03T09:15:32.567Z,100942.31
2023-02-03T09:18:00.693Z,100945.03
2023-02-03T09:20:29.541Z,100955.41
2023-02-03T09:23:00.861Z,100943.56
2023-02-03T09:25:30.227Z,100975.41
2023-02-03T09:27:58.317Z,100975.16
2023-02-03T09:30:26.990Z,100955.88
2023-02-03T09:32:56.816Z,100972.53
2023-02-03T09:35:26.978Z,100962.63
2023-02-03T09:37:55.166Z,100957.22
2023-02-03T09:40:28.778Z,100949.25
2023-02-03T09:43:24.104Z,100944.09
2023-02-03T09:45:52.348Z,100934.56
2023-02-03T09:48:25.342Z,100931.59
2023-02-03T09:50:54.724Z,100917.78
2023-02-03T09:53:29.364Z,100934.06
2023-02-03T09:55:59.437Z,100943.56
2023-02-03T09:58:35.825Z,100953.63
2023-02-03T10:01:09.437Z,100931.31
2023-02-03T10:03:44.234Z,100922.19
2023-02-03T10:06:21.150Z,100927.06
2023-02-03T10:09:02.437Z,100929.09
2023-02-03T10:11:44.965Z,100940.38
2023-02-03T10:14:33.937Z,100939.53
2023-02-03T10:17:20.088Z,100942.59
2023-02-03T10:19:52.251Z,100920.41
2023-02-03T10:22:25.930Z,100939.50
2023-02-03T10:25:00.343Z,100937.97
2023-02-03T10:27:30.213Z,100945.28
2023-02-03T10:30:04.746Z,100949.41
2023-02-03T10:32:33.938Z,100938.06
2023-02-03T10:35:03.064Z,100839.44
2023-02-03T10:37:34.309Z,100951.44
2023-02-03T10:40:03.630Z,100924.03
2023-02-03T10:42:47.423Z,100896.97
2023-02-03T10:45:17.119Z,100896.72
2023-02-03T10:47:49.477Z,100933.06
2023-02-03T10:50:20.513Z,100937.91
2023-02-03T10:52:48.878Z,100948.00
2023-02-03T10:55:33.152Z,100926.00
2023-02-03T10:58:11.876Z,100953.38
2023-02-03T11:00:41.639Z,100940.84
2023-02-03T11:03:24.361Z,100952.66
2023-02-03T11:06:06.251Z,100965.56
2023-02-03T11:08:35.750Z,100969.69
2023-02-03T11:11:06.338Z,100990.16
2023-02-03T11:13:34.778Z,101007.13
2023-02-03T11:16:06.994Z,101008.34
2023-02-03T11:18:42.714Z,101010.00
2023-02-03T11:21:14.185Z,101027.38
2023-02-03T11:23:53.381Z,101018.38
2023-02-03T11:26:23.956Z,101030.53
2023-02-03T11:28:56.505Z,101031.00
2023-02-03T11:31:29.585Z,101036.84
2023-02-03T11:34:04.539Z,101031.28
2023-02-03T11:36:35.194Z,101059.25
2023-02-03T11:39:12.141Z,101033.03
2023-02-03T11:41:41.420Z,101042.28
2023-02-03T11:44:16.615Z,101043.56
2023-02-03T11:46:49.753Z,101066.81
2023-02-03T11:49:45.412Z,101074.03
2023-02-03T11:52:46.876Z,101057.88
2023-02-03T11:55:27.040Z,101078.00
2023-02-03T11:58:13.118Z,101073.84
2023-02-03T12:00:52.100Z,101091.38
2023-02-03T12:03:45.303Z,101103.00
2023-02-03T12:06:25.575Z,101105.25
2023-02-03T12:09:11.703Z,101102.88
2023-02-03T12:12:05.438Z,101110.94
2023-02-03T12:14:50.541Z,101117.88
2023-02-03T12:17:45.830Z,101129.78
2023-02-03T12:20:28.437Z,101136.50
2023-02-03T12:23:05.098Z,101143.94
2023-02-03T12:25:42.296Z,101144.63
2023-02-03T12:28:32.930Z,101145.94
2023-02-03T12:31:10.045Z,101159.53
2023-02-03T12:33:44.508Z,101160.06
2023-02-03T12:36:19.128Z,101161.81
2023-02-03T12:38:54.463Z,101175.00
2023-02-03T12:41:26.746Z,101189.25
2023-02-03T12:43:59.741Z,101198.22
2023-02-03T12:46:31.880Z,101205.19
2023-02-03T12:49:04.248Z,101215.38
2023-02-03T12:51:39.971Z,101229.00
2023-02-03T12:54:27.172Z,101222.63
2023-02-03T12:56:59.322Z,101245.66
2023-02-03T12:59:32.714Z,101220.63
2023-02-03T13:02:13.798Z,101225.81
2023-02-03T13:04:47.905Z,101233.22
2023-02-03T13:07:25.766Z,101242.81
2023-02-03T13:10:00.036Z,101242.53
2023-02-03T13:12:32.629Z,101239.19
2023-02-03T13:15:11.609Z,101249.03
2023-02-03T13:17:45.719Z,101252.63
2023-02-03T13:20:20.175Z,101261.75
2023-02-03T13:22:50.475Z,101260.97
2023-02-03T13:25:25.706Z,101261.84
2023-02-03T13:28:03.783Z,101272.16
2023-02-03T13:30:52.487Z,101269.69
2023-02-03T13:33:55.594Z,101247.25
2023-02-03T13:36:47.756Z,101266.56
2023-02-03T13:39:38.096Z,101289.38
2023-02-03T13:42:19.574Z,101266.59
2023-02-03T13:44:51.669Z,101272.13
2023-02-03T13:47:24.243Z,101266.38
2023-02-03T13:49:56.804Z,101266.22
2023-02-03T13:52:28.258Z,101280.59
2023-02-03T13:54:58.771Z,101295.00
2023-02-03T13:57:35.558Z,101286.16
2023-02-03T14:00:07.208Z,101284.31
2023-02-03T14:02:46.688Z,101291.56
2023-02-03T14:05:44.731Z,101294.94
2023-02-03T14:08:55.119Z,101291.94
2023-02-03T14:11:45.510Z,101301.56
2023-02-03T14:14:42.399Z,101306.19
2023-02-03T14:17:58.527Z,101302.81
2023-02-03T14:20:56.119Z,101319.13
2023-02-03T14:23:42.215Z,101303.69
2023-02-03T14:26:31.517Z,101328.56
2023-02-03T14:29:03.028Z,101322.22
2023-02-03T14:31:31.620Z,101340.16
2023-02-03T14:34:07.847Z,101337.84
2023-02-03T14:36:44.271Z,101331.50
2023-02-03T14:39:57.914Z,101350.16
2023-02-03T14:43:09.518Z,101344.44
2023-02-03T14:45:55.927Z,101342.03
2023-02-03T14:48:43.962Z,101349.03
2023-02-03T14:51:22.619Z,101340.72
2023-02-03T14:54:09.276Z,101338.97
2023-02-03T14:57:05.719Z,101343.50
2023-02-03T14:59:42.449Z,101355.84
2023-02-03T15:02:19.126Z,101368.84
2023-02-03T15:04:50.361Z,101377.41
2023-02-03T15:07:39.418Z,101373.91
2023-02-03T15:10:15.988Z,101390.84
2023-02-03T15:12:49.805Z,101372.44
2023-02-03T15:15:23.218Z,101384.34
2023-02-03T15:17:54.409Z,101375.13
2023-02-03T15:20:30.493Z,101392.59
2023-02-03T15:22:59.018Z,101388.34
2023-02-03T15:25:33.036Z,101394.19
2023-02-03T15:28:17.064Z,101396.44
2023-02-03T15:30:45.618Z,101391.03
2023-02-03T15:33:17.792Z,101401.13
2023-02-03T15:35:49.423Z,101395.09
2023-02-03T15:38:22.024Z,101407.84
2023-02-03T15:40:54.609Z,101404.09
2023-02-03T15:43:27.394Z,101426.34
2023-02-03T15:46:03.436Z,101431.97
2023-02-03T15:48:42.210Z,101430.22
2023-02-03T15:51:14.670Z,101423.84
2023-02-03T15:53:55.204Z,101420.75
2023-02-03T15:56:30.619Z,101433.91
2023-02-03T15:58:59.868Z,101451.63
2023-02-03T16:01:29.227Z,101459.91
2023-02-03T16:04:00.397Z,101452.56
2023-02-03T16:06:35.922Z,101456.47
2023-02-03T16:09:07.010Z,101473.50
2023-02-03T16:11:37.182Z,101476.00
2023-02-03T16:14:07.855Z,101482.06
2023-02-03T16:16:40.094Z,101479.16
2023-02-03T16:19:16.001Z,101486.91
2023-02-03T16:21:54.881Z,101503.16
2023-02-03T16:24:40.740Z,101494.28
2023-02-03T16:27:22.455Z,101494.16
2023-02-03T16:30:07.742Z,101491.19
2023-02-03T16:32:53.653Z,101493.25
2023-02-03T16:35:40.705Z,101498.19
2023-02-03T16:38:32.693Z,101493.63
2023-02-03T16:41:18.536Z,101500.72
2023-02-03T16:44:04.692Z,101494.44
2023-02-03T16:46:50.024Z,101498.91
2023-02-03T16:49:35.741Z,101504.81
2023-02-03T16:52:06.514Z,101500.56
2023-02-03T16:54:34.455Z,101516.91
2023-02-03T16:57:04.033Z,101509.72
2023-02-03T16:59:32.096Z,101524.69
2023-02-03T17:02:00.220Z,101511.38
2023-02-03T17:04:28.394Z,101520.22
2023-02-03T17:06:56.707Z,101524.06
2023-02-03T17:09:26.142Z,101512.66
2023-02-03T17:11:54.323Z,101521.28
2023-02-03T17:14:22.325Z,101509.94
2023-02-03T17:16:50.694Z,101516.22
2023-02-03T17:19:21.270Z,101504.78
2023-02-03T17:21:50.493Z,101509.34
2023-02-03T17:24:19.601Z,101510.66
2023-02-03T17:26:49.160Z,101513.69
2023-02-03T17:29:17.310Z,101503.63
2023-02-03T17:31:45.206Z,101503.75
2023-02-03T17:34:13.379Z,101525.78
2023-02-03T17:36:41.289Z,101530.56
2023-02-03T17:55:34.019Z,101564.97
2023-02-03T17:58:03.988Z,101552.69
2023-02-03T18:00:32.477Z,101565.13
2023-02-03T18:03:02.383Z,101560.56
2023-02-03T18:05:32.491Z,101570.25
2023-02-03T18:08:05.964Z,101575.72
2023-02-03T18:10:40.252Z,101573.41
2023-02-03T18:13:09.857Z,101575.75
2023-02-03T18:15:39.497Z,101556.94
2023-02-03T18:18:07.996Z,101563.34
2023-02-03T18:20:36.197Z,101556.41
2023-02-03T18:23:04.761Z,101574.00
2023-02-03T18:25:32.707Z,101578.59
2023-02-03T18:28:00.952Z,101576.88
2023-02-03T18:30:30.477Z,101576.03
2023-02-03T18:33:01.975Z,101585.66
2023-02-03T18:35:30.261Z,101588.56
2023-02-03T18:37:58.350Z,101622.19
2023-02-03T18:40:26.567Z,101605.38
2023-02-03T18:42:56.276Z,101585.69
2023-02-03T18:45:24.358Z,101600.72
2023-02-03T18:47:54.018Z,101615.72
2023-02-03T18:50:22.163Z,101609.75
2023-02-03T18:52:53.965Z,101630.63
2023-02-03T18:55:22.011Z,101634.31
2023-02-03T18:57:50.193Z,101645.03
2023-02-03T19:00:18.369Z,101636.00
2023-02-03T19:02:49.684Z,101645.97
2023-02-03T19:05:19.075Z,101653.00
2023-02-03T19:07:47.086Z,101645.94
2023-02-03T19:10:15.234Z,101644.16
2023-02-03T19:12:43.232Z,101651.19
2023-02-03T19:15:12.124Z,101646.91
2023-02-03T19:17:40.265Z,101653.94
2023-02-03T19:20:09.972Z,101648.63
2023-02-03T19:22:39.331Z,101678.72
2023-02-03T19:25:07.867Z,101661.03
2023-02-03T19:27:36.235Z,101627.53
2023-02-03T19:30:04.349Z,101649.63
2023-02-03T19:32:32.578Z,101656.63
2023-02-03T19:35:00.461Z,101653.16
2023-02-03T19:37:28.568Z,101651.34
2023-02-03T19:39:57.854Z,101639.94
2023-02-03T19:42:26.008Z,101662.00
2023-02-03T19:44:54.102Z,101642.56
2023-02-03T19:47:22.174Z,101658.44
2023-02-03T19:49:50.292Z,101669.84
2023-02-03T19:52:18.318Z,101676.94
2023-02-03T19:54:46.480Z,101684.84
2023-02-03T19:57:15.790Z,101684.84
2023-02-03T19:59:43.811Z,101686.50
2023-02-03T20:02:14.629Z,101709.41
2023-02-03T20:04:44.184Z,101696.31
2023-02-03T20:07:13.338Z,101707.72
2023-02-03T20:09:41.304Z,101713.03
2023-02-03T20:12:09.808Z,101721.00
2023-02-03T20:14:39.320Z,101713.72
2023-02-03T20:17:07.793Z,101728.97
2023-02-03T20:19:35.871Z,101733.31
2023-02-03T20:22:03.900Z,101733.25
2023-02-03T20:24:31.888Z,101740.38
2023-02-03T20:26:59.819Z,101722.66
2023-02-03T20:29:28.062Z,101742.06
2023-02-03T20:31:58.615Z,101744.81
2023-02-03T20:34:27.490Z,101735.13
2023-02-03T20:36:58.520Z,101747.44
2023-02-03T20:39:27.134Z,101745.69
2023-02-03T20:41:55.650Z,101751.03
2023-02-03T20:44:23.523Z,101749.16
2023-02-03T20:46:52.919Z,101756.19
2023-02-03T20:49:22.447Z,101764.16
2023-02-03T20:51:50.985Z,101764.13
2023-02-03T20:54:21.240Z,101760.66
2023-02-03T20:56:50.306Z,101773.00
2023-02-03T20:59:20.374Z,101780.06
2023-02-03T21:01:49.225Z,101781.81
2023-02-03T21:04:36.363Z,101797.69
2023-02-03T21:07:14.077Z,101793.34
2023-02-03T21:09:42.132Z,101803.06
2023-02-03T21:12:15.740Z,101805.72
2023-02-03T21:14:45.982Z,101812.75
2023-02-03T21:17:18.238Z,101807.41
2023-02-03T21:19:46.228Z,101800.38
2023-02-03T21:22:21.874Z,101818.00
2023-02-03T21:24:53.017Z,101806.56
2023-02-03T21:27:27.436Z,101817.19
2023-02-03T21:29:57.587Z,101817.16
2023-02-03T21:32:35.277Z,101833.94
2023-02-03T21:35:03.407Z,101844.53
2023-02-03T21:37:50.962Z,101831.28
2023-02-03T21:40:22.718Z,101849.81
2023-02-03T21:42:51.920Z,101851.56
2023-02-03T21:45:31.004Z,101841.84
2023-02-03T21:47:59.790Z,101855.97
2023-02-03T21:50:30.622Z,101873.66
2023-02-03T21:53:18.843Z,101868.34
2023-02-03T21:55:46.895Z,101882.47
2023-02-03T21:58:23.763Z,101870.81
2023-02-03T22:00:53.506Z,101878.72
2023-02-03T22:03:27.250Z,101875.38
2023-02-03T22:06:05.904Z,101874.50
2023-02-03T22:08:39.093Z,101888.56
2023-02-03T22:11:07.078Z,101895.72
2023-02-03T22:13:35.650Z,101902.78
2023-02-03T22:16:03.941Z,101913.38
2023-02-03T22:18:32.424Z,101920.44
2023-02-03T22:21:00.592Z,101909.84
2023-02-03T22:23:28.520Z,101923.09
2023-02-03T22:25:57.864Z,101932.78
2023-02-03T22:28:27.019Z,101938.03
2023-02-03T22:30:55.218Z,101929.28
2023-02-03T22:33:23.089Z,101940.72
2023-02-03T22:35:51.045Z,101941.59
2023-02-03T22:38:19.023Z,101957.53
2023-02-03T22:40:46.996Z,101958.38
2023-02-03T22:43:17.133Z,101969.91
2023-02-03T22:45:45.294Z,101973.41
2023-02-03T22:48:13.262Z,101983.94
2023-02-03T22:50:41.454Z,102003.19
2023-02-03T22:53:09.540Z,101990.97
2023-02-03T22:55:38.628Z,101996.16
2023-02-03T22:58:06.670Z,101990.97
2023-02-03T23:00:36.025Z,101990.81
2023-02-03T23:03:04.952Z,101984.56
2023-02-03T23:05:32.855Z,101993.47
2023-02-03T23:08:00.975Z,102007.78
2023-02-03T23:10:31.876Z,102009.53
2023-02-03T23:13:01.474Z,102018.38
2023-02-03T23:15:30.050Z,102030.69
2023-02-03T23:17:59.490Z,102036.88
2023-02-03T23:20:27.415Z,102035.97
2023-02-03T23:22:55.399Z,102047.28
2023-02-03T23:25:23.487Z,102056.22
2023-02-03T23:27:51.627Z,102062.16
2023-02-03T23:30:20.067Z,102066.50
2023-02-03T23:32:48.087Z,102062.72
2023-02-03T23:35:35.204Z,102073.50
2023-02-03T23:38:03.183Z,102083.31
2023-02-03T23:40:31.441Z,102098.13
2023-02-03T23:42:59.587Z,102090.31
2023-02-03T23:45:27.707Z,102098.16
2023-02-03T23:47:55.629Z,102116.41
2023-02-03T23:50:24.874Z,102127.44
2023-02-03T23:52:52.757Z,102135.53
2023-02-03T23:55:21.940Z,102150.34
2023-02-03T23:57:50.207Z,102148.59
